Overview Statistics Trail Chart Weather Telemetry Raw packets
 

This is the latest recevied weather packets stored in our database for station/object LU3GHF-13. If no packets are shown the sender has not sent any weather packets the latest 10 day(s).

<< 10 11 12 13 14 15 16 >>
Time Temp. Humidity Pressure Rain* Wind** Luminosity Snow
1788459314 32.22° C 50% 1002.6 hPa - - - -
1788458662 31.67° C 51% 1002.7 hPa - - - -
1788458058 31.67° C 51% 1002.8 hPa - - - -
1788457412 32.78° C 49% 1002.9 hPa - - - -
1788456805 32.22° C 51% 1003 hPa - - - -
1788456193 31.67° C 52% 1003.2 hPa - - - -
1788455591 31.67° C 52% 1003.2 hPa - - - -
1788454942 31.11° C 52% 1003.5 hPa - - - -
1788454309 31.11° C 52% 1003.6 hPa - - - -
1788453666 31.11° C 53% 1003.8 hPa - - - -
1788453029 31.11° C 54% 1003.8 hPa - - - -
1788452392 30° C 56% 1004.2 hPa - - - -
1788451771 30° C 56% 1004.4 hPa - - - -
1788449864 28.89° C 58% 1004.9 hPa - - - -
1788449262 28.33° C 62% 1005.2 hPa - - - -
1788448672 27.78° C 62% 1005.4 hPa - - - -
1788448003 27.22° C 64% 1005.6 hPa - - - -
1788446773 26.67° C 67% 1005.9 hPa - - - -
1788446169 26.11° C 68% 1006.1 hPa - - - -
1788445548 25.56° C 69% 1006.2 hPa - - - -
1788444905 25° C 70% 1006.2 hPa - - - -
1788444254 25° C 71% 1006.3 hPa - - - -
1788443644 24.44° C 75% 1006.5 hPa - - - -
1788443033 23.89° C 76% 1006.6 hPa - - - -
1788442429 23.33° C 77% 1006.7 hPa - - - -

* Rain since midnight (hover to see other rain measurements)
** Current wind speed in m/s (hover to see current wind gust speed)